sensor_id;sensor_type;location;lat;lon;timestamp;temperature;humidity
33105;DHT22;19476;51.448;6.674;2023-05-20T00:00:29;20.70;33.90
33105;DHT22;19476;51.448;6.674;2023-05-20T00:02:56;20.60;34.00
33105;DHT22;19476;51.448;6.674;2023-05-20T00:05:22;20.60;34.00
33105;DHT22;19476;51.448;6.674;2023-05-20T00:07:48;20.60;34.10
33105;DHT22;19476;51.448;6.674;2023-05-20T00:10:14;20.60;34.10
33105;DHT22;19476;51.448;6.674;2023-05-20T00:12:40;20.50;34.10
33105;DHT22;19476;51.448;6.674;2023-05-20T00:15:06;20.50;34.20
33105;DHT22;19476;51.448;6.674;2023-05-20T00:17:32;20.50;34.40
33105;DHT22;19476;51.448;6.674;2023-05-20T00:19:58;20.50;34.30
33105;DHT22;19476;51.448;6.674;2023-05-20T00:22:24;20.40;34.30
33105;DHT22;19476;51.448;6.674;2023-05-20T00:24:50;20.50;34.30
33105;DHT22;19476;51.448;6.674;2023-05-20T00:27:16;20.40;34.20
33105;DHT22;19476;51.448;6.674;2023-05-20T00:29:42;20.40;34.20
33105;DHT22;19476;51.448;6.674;2023-05-20T00:32:08;20.40;34.20
33105;DHT22;19476;51.448;6.674;2023-05-20T00:34:33;20.40;34.20
33105;DHT22;19476;51.448;6.674;2023-05-20T00:36:59;20.40;34.20
33105;DHT22;19476;51.448;6.674;2023-05-20T00:39:25;20.30;34.20
33105;DHT22;19476;51.448;6.674;2023-05-20T00:41:51;20.30;34.50
33105;DHT22;19476;51.448;6.674;2023-05-20T00:44:16;20.30;34.30
33105;DHT22;19476;51.448;6.674;2023-05-20T00:46:45;20.30;34.30
33105;DHT22;19476;51.448;6.674;2023-05-20T00:49:11;20.30;34.50
33105;DHT22;19476;51.448;6.674;2023-05-20T00:51:36;20.30;34.50
33105;DHT22;19476;51.448;6.674;2023-05-20T00:54:02;20.30;34.50
33105;DHT22;19476;51.448;6.674;2023-05-20T00:56:29;20.20;35.10
33105;DHT22;19476;51.448;6.674;2023-05-20T00:58:55;20.20;34.50
33105;DHT22;19476;51.448;6.674;2023-05-20T01:01:22;20.20;34.70
33105;DHT22;19476;51.448;6.674;2023-05-20T01:03:47;20.20;34.70
33105;DHT22;19476;51.448;6.674;2023-05-20T01:06:13;20.20;34.70
33105;DHT22;19476;51.448;6.674;2023-05-20T01:08:39;20.10;34.80
33105;DHT22;19476;51.448;6.674;2023-05-20T01:11:13;20.10;34.80
33105;DHT22;19476;51.448;6.674;2023-05-20T01:13:46;20.10;35.30
33105;DHT22;19476;51.448;6.674;2023-05-20T01:16:17;20.10;35.40
33105;DHT22;19476;51.448;6.674;2023-05-20T01:18:43;20.00;35.30
33105;DHT22;19476;51.448;6.674;2023-05-20T01:21:11;20.00;35.10
33105;DHT22;19476;51.448;6.674;2023-05-20T01:23:40;19.90;35.20
33105;DHT22;19476;51.448;6.674;2023-05-20T01:26:07;19.90;35.50
33105;DHT22;19476;51.448;6.674;2023-05-20T01:28:36;19.90;35.30
33105;DHT22;19476;51.448;6.674;2023-05-20T01:31:05;19.90;35.70
33105;DHT22;19476;51.448;6.674;2023-05-20T01:33:35;19.90;35.60
33105;DHT22;19476;51.448;6.674;2023-05-20T01:36:02;19.80;35.60
33105;DHT22;19476;51.448;6.674;2023-05-20T01:38:29;19.80;35.60
33105;DHT22;19476;51.448;6.674;2023-05-20T01:40:56;19.80;35.80
33105;DHT22;19476;51.448;6.674;2023-05-20T01:43:23;19.80;35.90
33105;DHT22;19476;51.448;6.674;2023-05-20T01:45:49;19.70;35.80
33105;DHT22;19476;51.448;6.674;2023-05-20T01:48:14;19.70;35.90
33105;DHT22;19476;51.448;6.674;2023-05-20T01:50:41;19.70;36.00
33105;DHT22;19476;51.448;6.674;2023-05-20T01:53:07;19.60;36.10
33105;DHT22;19476;51.448;6.674;2023-05-20T01:55:34;19.60;36.20
33105;DHT22;19476;51.448;6.674;2023-05-20T01:58:01;19.60;36.20
33105;DHT22;19476;51.448;6.674;2023-05-20T02:00:27;19.60;36.40
33105;DHT22;19476;51.448;6.674;2023-05-20T02:02:53;19.50;36.40
33105;DHT22;19476;51.448;6.674;2023-05-20T02:05:19;19.50;36.40
33105;DHT22;19476;51.448;6.674;2023-05-20T02:07:44;19.50;36.50
33105;DHT22;19476;51.448;6.674;2023-05-20T02:10:10;19.50;36.60
33105;DHT22;19476;51.448;6.674;2023-05-20T02:12:36;19.50;36.70
33105;DHT22;19476;51.448;6.674;2023-05-20T02:15:02;19.50;36.80
33105;DHT22;19476;51.448;6.674;2023-05-20T02:17:28;19.50;36.90
33105;DHT22;19476;51.448;6.674;2023-05-20T02:19:54;19.40;37.00
33105;DHT22;19476;51.448;6.674;2023-05-20T02:22:19;19.40;37.00
33105;DHT22;19476;51.448;6.674;2023-05-20T02:24:45;19.40;37.10
33105;DHT22;19476;51.448;6.674;2023-05-20T02:27:11;19.40;37.20
33105;DHT22;19476;51.448;6.674;2023-05-20T02:29:37;19.30;37.20
33105;DHT22;19476;51.448;6.674;2023-05-20T02:32:03;19.30;37.30
33105;DHT22;19476;51.448;6.674;2023-05-20T02:34:31;19.30;37.40
33105;DHT22;19476;51.448;6.674;2023-05-20T02:36:57;19.30;37.70
33105;DHT22;19476;51.448;6.674;2023-05-20T02:39:23;19.30;37.60
33105;DHT22;19476;51.448;6.674;2023-05-20T02:41:49;19.30;37.70
33105;DHT22;19476;51.448;6.674;2023-05-20T02:44:14;19.20;37.70
33105;DHT22;19476;51.448;6.674;2023-05-20T02:46:41;19.30;37.90
33105;DHT22;19476;51.448;6.674;2023-05-20T02:49:07;19.20;37.90
33105;DHT22;19476;51.448;6.674;2023-05-20T02:51:33;19.20;38.00
33105;DHT22;19476;51.448;6.674;2023-05-20T02:53:59;19.20;38.10
33105;DHT22;19476;51.448;6.674;2023-05-20T02:56:25;19.20;38.20
33105;DHT22;19476;51.448;6.674;2023-05-20T02:58:51;19.20;38.20
33105;DHT22;19476;51.448;6.674;2023-05-20T03:01:17;19.20;38.40
33105;DHT22;19476;51.448;6.674;2023-05-20T03:03:43;19.10;38.40
33105;DHT22;19476;51.448;6.674;2023-05-20T03:06:09;19.20;38.60
33105;DHT22;19476;51.448;6.674;2023-05-20T03:08:35;19.10;38.60
33105;DHT22;19476;51.448;6.674;2023-05-20T03:11:01;19.10;38.60
33105;DHT22;19476;51.448;6.674;2023-05-20T03:13:28;19.10;38.70
33105;DHT22;19476;51.448;6.674;2023-05-20T03:15:54;19.10;39.00
33105;DHT22;19476;51.448;6.674;2023-05-20T03:18:20;19.10;38.90
33105;DHT22;19476;51.448;6.674;2023-05-20T03:20:46;19.10;39.00
33105;DHT22;19476;51.448;6.674;2023-05-20T03:23:12;19.10;39.10
33105;DHT22;19476;51.448;6.674;2023-05-20T03:25:38;19.10;39.20
33105;DHT22;19476;51.448;6.674;2023-05-20T03:28:05;19.10;39.30
33105;DHT22;19476;51.448;6.674;2023-05-20T03:30:31;19.00;39.30
33105;DHT22;19476;51.448;6.674;2023-05-20T03:32:57;19.00;39.40
33105;DHT22;19476;51.448;6.674;2023-05-20T03:35:24;19.00;39.50
33105;DHT22;19476;51.448;6.674;2023-05-20T03:37:50;19.00;39.50
33105;DHT22;19476;51.448;6.674;2023-05-20T03:40:19;19.00;39.50
33105;DHT22;19476;51.448;6.674;2023-05-20T03:42:45;19.00;39.70
33105;DHT22;19476;51.448;6.674;2023-05-20T03:45:11;19.00;39.70
33105;DHT22;19476;51.448;6.674;2023-05-20T03:47:37;18.90;39.60
33105;DHT22;19476;51.448;6.674;2023-05-20T03:50:04;18.90;39.70
33105;DHT22;19476;51.448;6.674;2023-05-20T03:52:30;18.90;39.80
33105;DHT22;19476;51.448;6.674;2023-05-20T03:54:56;18.90;39.80
33105;DHT22;19476;51.448;6.674;2023-05-20T03:57:22;18.90;39.90
33105;DHT22;19476;51.448;6.674;2023-05-20T03:59:48;18.90;39.90
33105;DHT22;19476;51.448;6.674;2023-05-20T04:02:14;18.80;40.00
33105;DHT22;19476;51.448;6.674;2023-05-20T04:04:40;18.80;40.10
33105;DHT22;19476;51.448;6.674;2023-05-20T04:07:09;18.80;40.20
33105;DHT22;19476;51.448;6.674;2023-05-20T04:09:37;18.80;40.30
33105;DHT22;19476;51.448;6.674;2023-05-20T04:12:04;18.80;40.60
33105;DHT22;19476;51.448;6.674;2023-05-20T04:14:30;18.80;40.40
33105;DHT22;19476;51.448;6.674;2023-05-20T04:17:02;18.80;40.40
33105;DHT22;19476;51.448;6.674;2023-05-20T04:19:28;18.80;41.20
33105;DHT22;19476;51.448;6.674;2023-05-20T04:21:55;18.80;40.40
33105;DHT22;19476;51.448;6.674;2023-05-20T04:24:20;18.80;40.50
33105;DHT22;19476;51.448;6.674;2023-05-20T04:26:50;18.80;40.50
33105;DHT22;19476;51.448;6.674;2023-05-20T04:29:17;18.80;40.60
33105;DHT22;19476;51.448;6.674;2023-05-20T04:31:45;18.70;40.60
33105;DHT22;19476;51.448;6.674;2023-05-20T04:34:11;18.70;40.70
33105;DHT22;19476;51.448;6.674;2023-05-20T04:36:37;18.70;40.70
33105;DHT22;19476;51.448;6.674;2023-05-20T04:39:03;18.70;40.70
33105;DHT22;19476;51.448;6.674;2023-05-20T04:41:30;18.70;40.90
33105;DHT22;19476;51.448;6.674;2023-05-20T04:43:56;18.70;41.00
33105;DHT22;19476;51.448;6.674;2023-05-20T04:46:25;18.70;41.10
33105;DHT22;19476;51.448;6.674;2023-05-20T04:48:52;18.70;41.00
33105;DHT22;19476;51.448;6.674;2023-05-20T04:51:19;18.50;41.10
33105;DHT22;19476;51.448;6.674;2023-05-20T04:53:44;18.70;41.40
33105;DHT22;19476;51.448;6.674;2023-05-20T04:56:11;18.70;41.50
33105;DHT22;19476;51.448;6.674;2023-05-20T04:58:37;18.70;41.80
33105;DHT22;19476;51.448;6.674;2023-05-20T05:01:03;18.70;41.80
33105;DHT22;19476;51.448;6.674;2023-05-20T05:03:29;18.90;41.90
33105;DHT22;19476;51.448;6.674;2023-05-20T05:05:55;18.70;42.00
33105;DHT22;19476;51.448;6.674;2023-05-20T05:08:22;18.70;42.10
33105;DHT22;19476;51.448;6.674;2023-05-20T05:10:47;18.80;42.10
33105;DHT22;19476;51.448;6.674;2023-05-20T05:13:13;18.70;42.10
33105;DHT22;19476;51.448;6.674;2023-05-20T05:15:39;18.80;42.20
33105;DHT22;19476;51.448;6.674;2023-05-20T05:18:05;18.80;42.30
33105;DHT22;19476;51.448;6.674;2023-05-20T05:20:31;18.80;42.20
33105;DHT22;19476;51.448;6.674;2023-05-20T05:22:57;18.90;42.20
33105;DHT22;19476;51.448;6.674;2023-05-20T05:25:23;18.90;42.10
33105;DHT22;19476;51.448;6.674;2023-05-20T05:27:49;18.90;42.10
33105;DHT22;19476;51.448;6.674;2023-05-20T05:30:15;18.90;42.10
33105;DHT22;19476;51.448;6.674;2023-05-20T05:32:41;19.00;42.20
33105;DHT22;19476;51.448;6.674;2023-05-20T05:35:07;19.00;42.20
33105;DHT22;19476;51.448;6.674;2023-05-20T05:37:33;19.00;42.10
33105;DHT22;19476;51.448;6.674;2023-05-20T05:39:59;19.10;42.00
33105;DHT22;19476;51.448;6.674;2023-05-20T05:42:25;19.10;42.00
33105;DHT22;19476;51.448;6.674;2023-05-20T05:44:50;19.10;41.90
33105;DHT22;19476;51.448;6.674;2023-05-20T05:47:16;19.10;41.90
33105;DHT22;19476;51.448;6.674;2023-05-20T05:49:42;19.10;41.80
33105;DHT22;19476;51.448;6.674;2023-05-20T05:52:08;19.40;42.00
33105;DHT22;19476;51.448;6.674;2023-05-20T05:54:34;19.10;41.80
33105;DHT22;19476;51.448;6.674;2023-05-20T05:57:00;19.20;41.90
33105;DHT22;19476;51.448;6.674;2023-05-20T05:59:26;19.20;41.90
33105;DHT22;19476;51.448;6.674;2023-05-20T06:01:52;19.20;41.90
33105;DHT22;19476;51.448;6.674;2023-05-20T06:04:17;19.20;41.90
33105;DHT22;19476;51.448;6.674;2023-05-20T06:06:43;19.30;42.00
33105;DHT22;19476;51.448;6.674;2023-05-20T06:09:09;19.30;42.00
33105;DHT22;19476;51.448;6.674;2023-05-20T06:11:35;19.40;42.00
33105;DHT22;19476;51.448;6.674;2023-05-20T06:14:01;19.30;41.90
33105;DHT22;19476;51.448;6.674;2023-05-20T06:16:27;19.40;42.00
33105;DHT22;19476;51.448;6.674;2023-05-20T06:18:53;19.20;41.80
33105;DHT22;19476;51.448;6.674;2023-05-20T06:21:22;19.40;41.90
33105;DHT22;19476;51.448;6.674;2023-05-20T06:23:48;19.50;41.90
33105;DHT22;19476;51.448;6.674;2023-05-20T06:26:14;19.50;41.90
33105;DHT22;19476;51.448;6.674;2023-05-20T06:28:40;19.60;41.80
33105;DHT22;19476;51.448;6.674;2023-05-20T06:31:05;19.60;41.70
33105;DHT22;19476;51.448;6.674;2023-05-20T06:33:31;19.60;41.70
33105;DHT22;19476;51.448;6.674;2023-05-20T06:35:57;19.70;41.70
33105;DHT22;19476;51.448;6.674;2023-05-20T06:38:23;19.70;41.70
33105;DHT22;19476;51.448;6.674;2023-05-20T06:40:49;19.80;41.70
33105;DHT22;19476;51.448;6.674;2023-05-20T06:43:16;19.80;41.60
33105;DHT22;19476;51.448;6.674;2023-05-20T06:45:42;19.90;41.60
33105;DHT22;19476;51.448;6.674;2023-05-20T06:48:08;19.90;41.50
33105;DHT22;19476;51.448;6.674;2023-05-20T06:50:34;19.90;41.40
33105;DHT22;19476;51.448;6.674;2023-05-20T06:53:00;20.00;41.40
33105;DHT22;19476;51.448;6.674;2023-05-20T06:55:26;20.00;41.50
33105;DHT22;19476;51.448;6.674;2023-05-20T06:57:52;20.10;41.40
33105;DHT22;19476;51.448;6.674;2023-05-20T07:00:18;20.10;41.20
33105;DHT22;19476;51.448;6.674;2023-05-20T07:02:44;20.20;41.20
33105;DHT22;19476;51.448;6.674;2023-05-20T07:05:11;20.20;41.10
33105;DHT22;19476;51.448;6.674;2023-05-20T07:07:37;20.20;41.20
33105;DHT22;19476;51.448;6.674;2023-05-20T07:10:04;20.30;41.20
33105;DHT22;19476;51.448;6.674;2023-05-20T07:12:31;20.40;41.20
33105;DHT22;19476;51.448;6.674;2023-05-20T07:14:57;20.40;41.20
33105;DHT22;19476;51.448;6.674;2023-05-20T07:17:23;20.40;41.20
33105;DHT22;19476;51.448;6.674;2023-05-20T07:19:49;20.40;41.10
33105;DHT22;19476;51.448;6.674;2023-05-20T07:22:15;20.50;41.00
33105;DHT22;19476;51.448;6.674;2023-05-20T07:24:41;20.60;41.00
33105;DHT22;19476;51.448;6.674;2023-05-20T07:27:07;20.60;40.90
33105;DHT22;19476;51.448;6.674;2023-05-20T07:29:34;20.70;40.90
33105;DHT22;19476;51.448;6.674;2023-05-20T07:32:00;20.70;40.80
33105;DHT22;19476;51.448;6.674;2023-05-20T07:34:26;20.70;40.50
33105;DHT22;19476;51.448;6.674;2023-05-20T07:36:52;20.70;40.30
33105;DHT22;19476;51.448;6.674;2023-05-20T07:39:18;20.70;40.30
33105;DHT22;19476;51.448;6.674;2023-05-20T07:41:44;20.70;40.40
33105;DHT22;19476;51.448;6.674;2023-05-20T07:44:10;20.80;40.40
33105;DHT22;19476;51.448;6.674;2023-05-20T07:46:38;20.80;40.30
33105;DHT22;19476;51.448;6.674;2023-05-20T07:49:04;20.90;40.40
33105;DHT22;19476;51.448;6.674;2023-05-20T07:51:30;20.90;40.30
33105;DHT22;19476;51.448;6.674;2023-05-20T07:53:56;20.90;40.30
33105;DHT22;19476;51.448;6.674;2023-05-20T07:56:22;21.00;40.80
33105;DHT22;19476;51.448;6.674;2023-05-20T07:58:56;21.00;40.30
33105;DHT22;19476;51.448;6.674;2023-05-20T08:01:23;21.00;40.30
33105;DHT22;19476;51.448;6.674;2023-05-20T08:03:49;21.00;40.30
33105;DHT22;19476;51.448;6.674;2023-05-20T08:06:15;21.00;40.30
33105;DHT22;19476;51.448;6.674;2023-05-20T08:08:42;21.10;40.30
33105;DHT22;19476;51.448;6.674;2023-05-20T08:11:08;21.10;40.30
33105;DHT22;19476;51.448;6.674;2023-05-20T08:13:34;21.10;40.20
33105;DHT22;19476;51.448;6.674;2023-05-20T08:16:01;21.20;40.10
33105;DHT22;19476;51.448;6.674;2023-05-20T08:18:34;21.20;40.10
33105;DHT22;19476;51.448;6.674;2023-05-20T08:21:04;21.20;40.10
33105;DHT22;19476;51.448;6.674;2023-05-20T08:23:31;21.20;40.10
33105;DHT22;19476;51.448;6.674;2023-05-20T08:25:57;21.20;40.00
33105;DHT22;19476;51.448;6.674;2023-05-20T08:28:27;21.20;40.10
33105;DHT22;19476;51.448;6.674;2023-05-20T08:30:52;21.30;40.30
33105;DHT22;19476;51.448;6.674;2023-05-20T08:33:19;21.30;40.40
33105;DHT22;19476;51.448;6.674;2023-05-20T08:35:47;21.30;40.40
33105;DHT22;19476;51.448;6.674;2023-05-20T08:38:13;21.30;40.40
33105;DHT22;19476;51.448;6.674;2023-05-20T08:40:40;21.30;40.30
33105;DHT22;19476;51.448;6.674;2023-05-20T08:43:06;21.40;40.40
33105;DHT22;19476;51.448;6.674;2023-05-20T08:45:33;21.40;40.20
33105;DHT22;19476;51.448;6.674;2023-05-20T08:48:00;21.40;40.10
33105;DHT22;19476;51.448;6.674;2023-05-20T08:50:26;21.50;40.20
33105;DHT22;19476;51.448;6.674;2023-05-20T08:52:52;21.50;40.10
33105;DHT22;19476;51.448;6.674;2023-05-20T08:55:25;21.50;40.00
33105;DHT22;19476;51.448;6.674;2023-05-20T08:57:54;21.60;40.10
33105;DHT22;19476;51.448;6.674;2023-05-20T09:00:22;21.60;39.90
33105;DHT22;19476;51.448;6.674;2023-05-20T09:02:54;21.60;39.90
33105;DHT22;19476;51.448;6.674;2023-05-20T09:05:20;21.70;40.00
33105;DHT22;19476;51.448;6.674;2023-05-20T09:07:47;21.70;40.00
33105;DHT22;19476;51.448;6.674;2023-05-20T09:10:13;21.70;40.00
33105;DHT22;19476;51.448;6.674;2023-05-20T09:12:39;21.80;39.90
33105;DHT22;19476;51.448;6.674;2023-05-20T09:15:06;21.80;39.80
33105;DHT22;19476;51.448;6.674;2023-05-20T09:17:36;21.80;39.90
33105;DHT22;19476;51.448;6.674;2023-05-20T09:20:09;21.90;40.00
33105;DHT22;19476;51.448;6.674;2023-05-20T09:22:37;22.00;40.10
33105;DHT22;19476;51.448;6.674;2023-05-20T09:25:03;22.00;39.90
33105;DHT22;19476;51.448;6.674;2023-05-20T09:27:29;22.00;39.80
33105;DHT22;19476;51.448;6.674;2023-05-20T09:29:55;22.00;39.80
33105;DHT22;19476;51.448;6.674;2023-05-20T09:32:21;22.10;39.90
33105;DHT22;19476;51.448;6.674;2023-05-20T09:34:51;22.10;39.80
33105;DHT22;19476;51.448;6.674;2023-05-20T09:37:17;22.20;39.70
33105;DHT22;19476;51.448;6.674;2023-05-20T09:39:54;22.20;39.70
33105;DHT22;19476;51.448;6.674;2023-05-20T09:42:49;22.20;39.80
33105;DHT22;19476;51.448;6.674;2023-05-20T09:45:17;22.30;39.70
33105;DHT22;19476;51.448;6.674;2023-05-20T09:47:43;22.30;39.50
33105;DHT22;19476;51.448;6.674;2023-05-20T09:50:09;22.40;39.70
33105;DHT22;19476;51.448;6.674;2023-05-20T09:52:38;22.50;39.60
33105;DHT22;19476;51.448;6.674;2023-05-20T09:55:05;22.50;39.60
33105;DHT22;19476;51.448;6.674;2023-05-20T09:57:35;22.60;39.50
33105;DHT22;19476;51.448;6.674;2023-05-20T10:00:02;22.70;39.40
33105;DHT22;19476;51.448;6.674;2023-05-20T10:02:34;22.70;39.30
33105;DHT22;19476;51.448;6.674;2023-05-20T10:05:05;22.80;39.30
33105;DHT22;19476;51.448;6.674;2023-05-20T10:10:26;22.70;39.00
33105;DHT22;19476;51.448;6.674;2023-05-20T10:16:16;22.80;38.90
33105;DHT22;19476;51.448;6.674;2023-05-20T10:18:55;22.90;38.90
33105;DHT22;19476;51.448;6.674;2023-05-20T10:21:26;22.90;38.80
33105;DHT22;19476;51.448;6.674;2023-05-20T10:23:52;22.90;38.70
33105;DHT22;19476;51.448;6.674;2023-05-20T10:26:19;22.90;38.70
33105;DHT22;19476;51.448;6.674;2023-05-20T10:28:49;22.90;38.90
33105;DHT22;19476;51.448;6.674;2023-05-20T10:31:22;22.90;39.00
33105;DHT22;19476;51.448;6.674;2023-05-20T10:33:50;23.00;39.20
33105;DHT22;19476;51.448;6.674;2023-05-20T10:36:25;23.00;39.10
33105;DHT22;19476;51.448;6.674;2023-05-20T10:38:57;23.00;39.00
33105;DHT22;19476;51.448;6.674;2023-05-20T10:41:27;23.10;39.00
33105;DHT22;19476;51.448;6.674;2023-05-20T10:44:04;23.00;38.90
33105;DHT22;19476;51.448;6.674;2023-05-20T10:46:32;23.00;38.80
33105;DHT22;19476;51.448;6.674;2023-05-20T10:48:58;23.00;38.80
33105;DHT22;19476;51.448;6.674;2023-05-20T10:51:24;23.00;38.70
33105;DHT22;19476;51.448;6.674;2023-05-20T10:53:54;23.00;38.90
33105;DHT22;19476;51.448;6.674;2023-05-20T10:56:23;23.00;38.90
33105;DHT22;19476;51.448;6.674;2023-05-20T10:58:50;23.00;39.00
33105;DHT22;19476;51.448;6.674;2023-05-20T11:01:16;23.00;39.00
33105;DHT22;19476;51.448;6.674;2023-05-20T11:03:44;23.10;38.90
33105;DHT22;19476;51.448;6.674;2023-05-20T11:06:16;23.10;39.00
33105;DHT22;19476;51.448;6.674;2023-05-20T11:08:43;23.10;39.10
33105;DHT22;19476;51.448;6.674;2023-05-20T11:11:10;23.10;38.90
33105;DHT22;19476;51.448;6.674;2023-05-20T11:13:36;23.20;39.00
33105;DHT22;19476;51.448;6.674;2023-05-20T11:16:03;23.20;38.90
33105;DHT22;19476;51.448;6.674;2023-05-20T11:18:29;23.30;38.90
33105;DHT22;19476;51.448;6.674;2023-05-20T11:20:57;23.30;38.90
33105;DHT22;19476;51.448;6.674;2023-05-20T11:23:23;23.40;38.80
33105;DHT22;19476;51.448;6.674;2023-05-20T11:25:52;23.80;38.90
33105;DHT22;19476;51.448;6.674;2023-05-20T11:28:19;23.40;38.70
33105;DHT22;19476;51.448;6.674;2023-05-20T11:30:46;23.50;38.70
33105;DHT22;19476;51.448;6.674;2023-05-20T11:33:14;23.50;38.60
33105;DHT22;19476;51.448;6.674;2023-05-20T11:35:47;23.50;38.60
33105;DHT22;19476;51.448;6.674;2023-05-20T11:38:14;23.50;38.70
33105;DHT22;19476;51.448;6.674;2023-05-20T11:40:44;23.50;38.50
33105;DHT22;19476;51.448;6.674;2023-05-20T11:43:11;23.50;38.70
33105;DHT22;19476;51.448;6.674;2023-05-20T11:45:42;23.60;38.80
33105;DHT22;19476;51.448;6.674;2023-05-20T11:48:08;23.60;38.90
33105;DHT22;19476;51.448;6.674;2023-05-20T11:50:40;23.60;38.90
33105;DHT22;19476;51.448;6.674;2023-05-20T11:53:08;23.60;38.80
33105;DHT22;19476;51.448;6.674;2023-05-20T11:55:57;23.60;38.80
33105;DHT22;19476;51.448;6.674;2023-05-20T11:58:25;23.60;38.80
33105;DHT22;19476;51.448;6.674;2023-05-20T12:00:51;23.60;38.80
33105;DHT22;19476;51.448;6.674;2023-05-20T12:03:18;23.60;38.80
33105;DHT22;19476;51.448;6.674;2023-05-20T12:05:44;23.70;39.10
33105;DHT22;19476;51.448;6.674;2023-05-20T12:08:11;23.70;39.00
33105;DHT22;19476;51.448;6.674;2023-05-20T12:10:37;23.80;38.90
33105;DHT22;19476;51.448;6.674;2023-05-20T12:13:04;23.90;39.00
33105;DHT22;19476;51.448;6.674;2023-05-20T12:15:34;23.90;38.90
33105;DHT22;19476;51.448;6.674;2023-05-20T12:18:06;24.00;38.90
33105;DHT22;19476;51.448;6.674;2023-05-20T12:20:33;24.10;39.10
33105;DHT22;19476;51.448;6.674;2023-05-20T12:23:00;24.10;38.90
33105;DHT22;19476;51.448;6.674;2023-05-20T12:25:26;24.20;38.80
33105;DHT22;19476;51.448;6.674;2023-05-20T12:27:52;24.30;38.70
33105;DHT22;19476;51.448;6.674;2023-05-20T12:30:22;24.40;38.70
33105;DHT22;19476;51.448;6.674;2023-05-20T12:32:50;24.40;38.90
33105;DHT22;19476;51.448;6.674;2023-05-20T12:35:23;24.50;38.70
33105;DHT22;19476;51.448;6.674;2023-05-20T12:37:50;24.60;38.50
33105;DHT22;19476;51.448;6.674;2023-05-20T12:40:16;24.60;38.30
33105;DHT22;19476;51.448;6.674;2023-05-20T12:42:43;24.70;38.40
33105;DHT22;19476;51.448;6.674;2023-05-20T12:45:09;24.70;38.30
33105;DHT22;19476;51.448;6.674;2023-05-20T12:47:35;24.70;38.40
33105;DHT22;19476;51.448;6.674;2023-05-20T12:50:02;24.70;38.20
33105;DHT22;19476;51.448;6.674;2023-05-20T12:52:28;24.80;38.00
33105;DHT22;19476;51.448;6.674;2023-05-20T12:54:55;24.90;38.00
33105;DHT22;19476;51.448;6.674;2023-05-20T12:57:21;24.90;38.20
33105;DHT22;19476;51.448;6.674;2023-05-20T12:59:47;25.00;38.10
33105;DHT22;19476;51.448;6.674;2023-05-20T13:02:13;25.10;37.90
33105;DHT22;19476;51.448;6.674;2023-05-20T13:04:39;25.20;37.90
33105;DHT22;19476;51.448;6.674;2023-05-20T13:07:05;25.30;37.80
33105;DHT22;19476;51.448;6.674;2023-05-20T13:09:31;25.40;37.60
33105;DHT22;19476;51.448;6.674;2023-05-20T13:11:57;25.40;37.40
33105;DHT22;19476;51.448;6.674;2023-05-20T13:14:23;25.50;37.20
33105;DHT22;19476;51.448;6.674;2023-05-20T13:16:50;25.50;37.00
33105;DHT22;19476;51.448;6.674;2023-05-20T13:19:20;25.50;36.90
33105;DHT22;19476;51.448;6.674;2023-05-20T13:21:47;25.60;36.90
33105;DHT22;19476;51.448;6.674;2023-05-20T13:24:13;25.60;36.80
33105;DHT22;19476;51.448;6.674;2023-05-20T13:26:39;25.60;36.70
33105;DHT22;19476;51.448;6.674;2023-05-20T13:29:06;25.70;36.50
33105;DHT22;19476;51.448;6.674;2023-05-20T13:31:32;25.70;36.30
33105;DHT22;19476;51.448;6.674;2023-05-20T13:33:58;25.70;36.10
33105;DHT22;19476;51.448;6.674;2023-05-20T13:36:25;25.70;36.00
33105;DHT22;19476;51.448;6.674;2023-05-20T13:38:51;25.70;36.10
33105;DHT22;19476;51.448;6.674;2023-05-20T13:41:17;25.80;36.20
33105;DHT22;19476;51.448;6.674;2023-05-20T13:43:46;25.80;36.30
33105;DHT22;19476;51.448;6.674;2023-05-20T13:46:12;25.80;36.00
33105;DHT22;19476;51.448;6.674;2023-05-20T13:48:38;25.90;36.20
33105;DHT22;19476;51.448;6.674;2023-05-20T13:51:04;25.90;35.90
33105;DHT22;19476;51.448;6.674;2023-05-20T13:53:30;26.00;35.80
33105;DHT22;19476;51.448;6.674;2023-05-20T13:55:57;25.90;35.70
33105;DHT22;19476;51.448;6.674;2023-05-20T13:58:22;25.90;35.60
33105;DHT22;19476;51.448;6.674;2023-05-20T14:00:48;25.90;35.50
33105;DHT22;19476;51.448;6.674;2023-05-20T14:03:14;25.90;35.50
33105;DHT22;19476;51.448;6.674;2023-05-20T14:05:41;25.90;35.40
33105;DHT22;19476;51.448;6.674;2023-05-20T14:08:07;25.90;35.30
33105;DHT22;19476;51.448;6.674;2023-05-20T14:10:35;25.90;35.30
33105;DHT22;19476;51.448;6.674;2023-05-20T14:13:01;25.90;35.20
33105;DHT22;19476;51.448;6.674;2023-05-20T14:15:27;25.80;35.10
33105;DHT22;19476;51.448;6.674;2023-05-20T14:17:56;25.80;35.10
33105;DHT22;19476;51.448;6.674;2023-05-20T14:20:23;25.80;35.10
33105;DHT22;19476;51.448;6.674;2023-05-20T14:22:50;25.70;35.10
33105;DHT22;19476;51.448;6.674;2023-05-20T14:25:16;25.70;35.30
33105;DHT22;19476;51.448;6.674;2023-05-20T14:27:41;25.60;35.10
33105;DHT22;19476;51.448;6.674;2023-05-20T14:30:08;25.60;35.10
33105;DHT22;19476;51.448;6.674;2023-05-20T14:32:34;25.60;35.10
33105;DHT22;19476;51.448;6.674;2023-05-20T14:35:03;25.40;35.00
33105;DHT22;19476;51.448;6.674;2023-05-20T14:37:29;25.50;35.00
33105;DHT22;19476;51.448;6.674;2023-05-20T14:39:55;25.50;35.10
33105;DHT22;19476;51.448;6.674;2023-05-20T14:42:21;25.40;35.10
33105;DHT22;19476;51.448;6.674;2023-05-20T14:44:47;25.30;35.10
33105;DHT22;19476;51.448;6.674;2023-05-20T14:47:13;25.30;35.20
33105;DHT22;19476;51.448;6.674;2023-05-20T14:49:45;25.30;35.20
33105;DHT22;19476;51.448;6.674;2023-05-20T14:52:11;25.30;35.30
33105;DHT22;19476;51.448;6.674;2023-05-20T14:54:37;25.20;35.20
33105;DHT22;19476;51.448;6.674;2023-05-20T14:57:04;25.20;35.40
33105;DHT22;19476;51.448;6.674;2023-05-20T14:59:31;25.20;35.10
33105;DHT22;19476;51.448;6.674;2023-05-20T15:01:57;25.20;35.20
33105;DHT22;19476;51.448;6.674;2023-05-20T15:04:23;25.30;35.30
33105;DHT22;19476;51.448;6.674;2023-05-20T15:06:49;25.30;35.30
33105;DHT22;19476;51.448;6.674;2023-05-20T15:09:15;25.30;35.40
33105;DHT22;19476;51.448;6.674;2023-05-20T15:11:42;25.30;35.50
33105;DHT22;19476;51.448;6.674;2023-05-20T15:14:08;25.40;35.60
33105;DHT22;19476;51.448;6.674;2023-05-20T15:16:34;25.40;35.40
33105;DHT22;19476;51.448;6.674;2023-05-20T15:19:00;25.40;35.30
33105;DHT22;19476;51.448;6.674;2023-05-20T15:21:26;25.40;35.50
33105;DHT22;19476;51.448;6.674;2023-05-20T15:23:52;25.40;35.30
33105;DHT22;19476;51.448;6.674;2023-05-20T15:26:18;25.50;35.30
33105;DHT22;19476;51.448;6.674;2023-05-20T15:28:44;25.50;35.20
33105;DHT22;19476;51.448;6.674;2023-05-20T15:31:09;25.50;35.20
33105;DHT22;19476;51.448;6.674;2023-05-20T15:33:35;25.60;35.20